Helston, United Kingdom

1:59 AM BST on August 28, 2014 (GMT +0100)
Culdrose Navy | Change Station
CLOSE
Current Station
Airport
Location: Culdrose,
Elevation: 266 ft
Nearby Weather Stations

Elev 266 ft 50.08 °N, 5.26 °W | Updated 9 minutes ago

Mostly Cloudy
Mostly Cloudy
59 °F
Feels Like 59 °F
N
10
Wind Variable Wind from SW

Today
High -- | Low -- °F
--% Chance of Precip.
Yesterday
High -- | Low -- °F
Precip. -- in
6:29 AM 8:13 PM
Waxing Crescent, 5% visible
Pressure 29.80 in
Visibility 6.2 miles
Clouds Few 1400 ft
Mostly Cloudy 2000 ft
Dew Point 57 °F
Humidity 94%
Rainfall 0.00 in
Snow Depth Not available.
UV 0 out of 12
Pollen Not available.
Air Quality Not available.
Flu Activity Not available.
METAR EGDR 280050Z 23009KT 9999 BR FEW014 BKN020 15/14 Q1009 WHT

More Conditions Fewer Conditions

Pressure 29.80 in
Visibility 6.2 miles
Clouds Few 1400 ft
Mostly Cloudy 2000 ft
Dew Point 57 °F
Humidity 94%
Rainfall 0.00 in
Snow Depth Not available.
UV 0 out of 12
Pollen Not available.
Air Quality Not available.
Flu Activity Not available.
METAR EGDR 280050Z 23009KT 9999 BR FEW014 BKN020 15/14 Q1009 WHT

More Conditions Fewer Conditions

10-Day Weather Forecast

Almanac

Astronomy

Aug. 28, 2014 Rise Set
Actual Time 6:29 AM BST 8:13 PM BST
Civil Twilight 5:55 AM BST 8:47 PM BST
Nautical Twilight 5:13 AM BST 9:29 PM BST
Astronomical Twilight 4:26 AM BST 10:16 PM BST
Moon 9:28 AM BST 9:07 PM BST
Length of Visible Light 14h 52m
Length of Day
13h 44m
Tomorrow will be 3m 35s shorter.
Waxing Crescent, 5% of the Moon is Illuminated
Aug 27
Waxing Crescent
Sep 2
First Quarter
Sep 8
Full
Sep 15
Last Quarter
Sep 24
New

Yesterday's Extremes

Country Highs Country Lows

Community

WunderPhotos

Upload Photos

1,747,837 photos uploaded!

Nearby

Snow Depth

Not available.

Earthquake Activity

City Distance Mag. Time & Date
No recent earthquake activity has been reported nearby.
Minimum magnitude displayed is 2.5.

Coastal Water Temperatures

Place Temperature
No Stations Reporting

Nearby Weather Stations